Time;durP1;ratioP1;P1;durP2;ratioP2;P2;SDS_P1;SDS_P2;PMS_P1;PMS_P2;Temp;Humidity;BMP_temperature;BMP_pressure;BME280_temperature;BME280_humidity;BME280_pressure;Samples;Min_cycle;Max_cycle;Signal;HPM_P1;HPM_P2
2022/09/09 00:02:19;;;;;;;4.87;1.93;;;12.50;58.90;;;;;;4955091;28;46328;-66
2022/09/09 00:05:01;;;;;;;4.57;2.03;;;12.50;58.10;;;;;;4969948;28;46349;-64
2022/09/09 00:07:47;;;;;;;3.90;2.10;;;12.50;59.10;;;;;;4956895;28;46210;-62
2022/09/09 00:10:29;;;;;;;10.17;2.20;;;12.50;59.00;;;;;;4951495;28;46709;-64
2022/09/09 00:13:17;;;;;;;7.50;2.30;;;12.40;59.00;;;;;;4950181;28;46535;-64
2022/09/09 00:16:03;;;;;;;7.17;2.53;;;12.40;57.90;;;;;;4949864;28;46407;-65
2022/09/09 00:18:33;;;;;;;4.73;2.00;;;12.40;59.10;;;;;;4952720;28;46544;-64
2022/09/09 00:21:07;;;;;;;5.43;2.70;;;12.40;58.90;;;;;;4947331;28;46629;-64
2022/09/09 00:23:36;;;;;;;5.13;2.27;;;12.40;57.90;;;;;;4953198;28;46082;-65
2022/09/09 00:26:15;;;;;;;4.37;2.27;;;12.40;58.90;;;;;;4952622;28;46394;-64
2022/09/09 00:29:04;;;;;;;6.30;2.10;;;12.50;58.80;;;;;;4955137;28;46218;-65
2022/09/09 00:31:33;;;;;;;5.87;2.80;;;12.50;58.80;;;;;;4952102;28;46674;-63
2022/09/09 00:34:23;;;;;;;6.47;3.00;;;12.60;57.70;;;;;;4974878;28;46384;-63
2022/09/09 00:36:53;;;;;;;4.73;2.67;;;12.60;58.80;;;;;;4960375;28;46452;-64
2022/09/09 00:39:32;;;;;;;5.70;2.60;;;12.70;58.60;;;;;;4946088;28;46599;-64
2022/09/09 00:42:14;;;;;;;4.10;2.63;;;12.70;58.50;;;;;;4955353;28;48254;-63
2022/09/09 00:44:59;;;;;;;4.33;2.30;;;12.80;57.40;;;;;;4958446;28;46299;-63
2022/09/09 00:47:52;;;;;;;3.67;2.10;;;12.80;58.30;;;;;;4962810;28;45826;-62
2022/09/09 00:50:50;;;;;;;5.70;2.07;;;12.90;58.30;;;;;;4961291;28;46246;-65
2022/09/09 00:53:23;;;;;;;6.60;1.90;;;12.90;57.30;;;;;;4971212;28;47594;-66
2022/09/09 00:56:16;;;;;;;4.57;2.13;;;12.90;58.20;;;;;;4955794;28;46421;-66
2022/09/09 00:59:14;;;;;;;3.33;2.03;;;13.00;58.00;;;;;;4953610;28;46371;-63
2022/09/09 01:01:41;;;;;;;7.47;2.40;;;13.10;57.90;;;;;;4958909;28;45985;-65
2022/09/09 01:04:30;;;;;;;4.47;2.37;;;13.10;56.80;;;;;;4955191;28;46596;-66
2022/09/09 01:07:18;;;;;;;4.70;2.00;;;13.10;57.80;;;;;;4973008;28;46636;-66
2022/09/09 01:09:53;;;;;;;9.27;2.53;;;13.10;57.70;;;;;;4954213;28;46334;-65
2022/09/09 01:12:27;;;;;;;6.10;1.97;;;13.20;57.70;;;;;;4954300;28;46399;-66
2022/09/09 01:15:16;;;;;;;7.10;2.23;;;13.20;56.70;;;;;;4952456;28;47111;-66
2022/09/09 01:18:04;;;;;;;5.30;2.47;;;13.30;57.70;;;;;;4956042;28;46827;-66
2022/09/09 01:21:00;;;;;;;5.60;2.30;;;13.30;57.60;;;;;;4955666;28;46537;-64
2022/09/09 01:23:31;;;;;;;4.23;1.77;;;13.30;56.90;;;;;;4959647;28;45852;-64
2022/09/09 01:26:14;;;;;;;4.93;2.00;;;13.20;56.80;;;;;;4956515;28;46685;-63
2022/09/09 01:28:48;;;;;;;4.57;2.17;;;13.20;58.00;;;;;;4951883;28;46365;-64
2022/09/09 01:31:21;;;;;;;4.20;2.43;;;13.20;58.10;;;;;;4956510;28;46712;-64
2022/09/09 01:33:48;;;;;;;4.80;2.30;;;13.10;57.30;;;;;;4959522;28;46535;-64
2022/09/09 01:36:28;;;;;;;3.40;2.33;;;13.10;58.30;;;;;;4957826;28;46667;-63
2022/09/09 01:38:55;;;;;;;4.93;2.20;;;13.10;58.50;;;;;;4950703;28;46488;-63
2022/09/09 01:41:23;;;;;;;4.60;2.23;;;13.10;58.60;;;;;;4960301;28;46449;-63
2022/09/09 01:43:51;;;;;;;7.30;2.47;;;13.00;57.80;;;;;;4960842;28;46396;-64
2022/09/09 01:46:21;;;;;;;3.30;2.23;;;12.90;58.80;;;;;;4936216;28;47413;-64
2022/09/09 01:48:51;;;;;;;4.40;2.20;;;13.00;59.00;;;;;;4958268;28;46353;-64
2022/09/09 01:51:19;;;;;;;4.20;2.10;;;12.90;59.10;;;;;;4955538;28;46347;-64
2022/09/09 01:53:48;;;;;;;4.00;2.30;;;12.90;58.40;;;;;;4957694;28;45848;-64
2022/09/09 01:56:42;;;;;;;5.70;2.30;;;12.90;58.60;;;;;;4953684;28;47267;-66
2022/09/09 01:59:33;;;;;;;4.37;2.43;;;12.90;58.60;;;;;;4954508;28;46588;-64
2022/09/09 02:02:30;;;;;;;3.73;2.20;;;12.90;59.60;;;;;;4960752;28;46706;-65
2022/09/09 02:05:23;;;;;;;8.93;2.60;;;12.90;58.40;;;;;;4957253;28;46615;-65
2022/09/09 02:08:01;;;;;;;6.67;2.33;;;12.90;59.40;;;;;;4953577;28;46087;-64
2022/09/09 02:10:35;;;;;;;3.80;2.47;;;13.00;59.30;;;;;;4968498;28;45836;-64
2022/09/09 02:13:10;;;;;;;3.57;2.20;;;13.00;59.30;;;;;;4958714;28;46090;-64
2022/09/09 02:16:02;;;;;;;4.33;2.63;;;13.10;58.30;;;;;;4972004;28;46823;-65
2022/09/09 02:18:55;;;;;;;5.40;2.60;;;13.10;59.40;;;;;;4956281;28;46627;-65
2022/09/09 02:21:24;;;;;;;5.57;2.37;;;13.20;59.40;;;;;;4957693;28;46424;-64
2022/09/09 02:23:53;;;;;;;7.40;2.43;;;13.10;58.50;;;;;;4961450;28;46457;-64
2022/09/09 02:26:23;;;;;;;4.93;2.10;;;13.10;59.60;;;;;;4954453;28;46566;-64
2022/09/09 02:28:53;;;;;;;6.20;2.20;;;13.10;59.70;;;;;;4954068;28;46662;-64
2022/09/09 02:31:25;;;;;;;6.73;2.27;;;13.10;59.90;;;;;;4957758;28;46673;-63
2022/09/09 02:33:57;;;;;;;5.83;2.77;;;13.00;59.20;;;;;;4953779;28;46544;-64
2022/09/09 02:36:29;;;;;;;6.27;2.50;;;13.00;60.10;;;;;;4959716;28;46277;-64
2022/09/09 02:38:57;;;;;;;7.03;2.80;;;13.10;60.00;;;;;;4952388;28;49558;-64
2022/09/09 02:41:30;;;;;;;6.20;2.53;;;13.10;60.00;;;;;;4955422;28;46515;-64
2022/09/09 02:43:57;;;;;;;6.10;2.40;;;13.30;59.10;;;;;;4956807;28;46001;-64
2022/09/09 02:46:35;;;;;;;5.93;2.43;;;13.30;59.90;;;;;;4936764;28;46436;-64
2022/09/09 02:49:44;;;;;;;5.17;2.47;;;13.30;59.90;;;;;;4955450;28;46151;-66
2022/09/09 02:52:50;;;;;;;4.47;2.40;;;13.40;60.10;;;;;;4973783;28;46434;-66
2022/09/09 02:55:31;;;;;;;4.33;2.30;;;13.40;59.10;;;;;;4968245;28;46407;-66
2022/09/09 02:57:59;;;;;;;5.53;2.40;;;13.50;60.00;;;;;;4956698;28;46391;-65
2022/09/09 03:00:27;;;;;;;4.77;2.20;;;13.60;59.70;;;;;;4957702;28;46540;-65
2022/09/09 03:02:56;;;;;;;4.67;2.30;;;13.70;59.40;;;;;;4953210;28;45852;-66
2022/09/09 03:05:23;;;;;;;6.10;2.27;;;13.70;58.30;;;;;;4954829;28;45874;-64
2022/09/09 03:07:50;;;;;;;5.10;2.37;;;13.70;60.60;;;;;;4953445;28;46393;-63
2022/09/09 03:10:19;;;;;;;8.00;2.60;;;13.70;59.80;;;;;;4956207;28;46376;-63
2022/09/09 03:12:46;;;;;;;9.20;2.50;;;13.70;59.90;;;;;;4956980;28;46452;-63
2022/09/09 03:15:14;;;;;;;7.03;2.27;;;13.70;59.20;;;;;;4953337;28;46393;-63
2022/09/09 03:17:42;;;;;;;5.83;1.97;;;13.70;60.30;;;;;;4954408;28;45918;-63
2022/09/09 03:20:10;;;;;;;5.67;1.90;;;13.60;60.30;;;;;;4956091;28;46729;-63
2022/09/09 03:22:37;;;;;;;9.00;2.30;;;13.60;59.40;;;;;;4949645;28;46702;-64
2022/09/09 03:25:06;;;;;;;7.50;2.30;;;13.50;59.40;;;;;;4952312;28;46492;-64
2022/09/09 03:27:35;;;;;;;5.00;2.07;;;13.50;60.50;;;;;;4957102;28;46830;-64
2022/09/09 03:30:03;;;;;;;9.53;2.03;;;13.50;60.40;;;;;;4952573;28;46589;-63
2022/09/09 03:32:31;;;;;;;6.67;2.50;;;13.50;60.50;;;;;;4968510;28;46376;-64
2022/09/09 03:34:59;;;;;;;6.33;2.33;;;13.50;59.80;;;;;;4933957;28;46334;-64
2022/09/09 03:37:26;;;;;;;10.17;2.87;;;13.40;60.60;;;;;;4966032;28;46396;-63
2022/09/09 03:39:57;;;;;;;4.80;2.70;;;13.40;60.70;;;;;;4970378;28;46760;-64
2022/09/09 03:42:25;;;;;;;4.03;2.30;;;13.40;60.70;;;;;;4962369;28;46562;-63
2022/09/09 03:44:52;;;;;;;4.50;1.97;;;13.30;60.00;;;;;;4958554;28;46664;-62
2022/09/09 03:47:24;;;;;;;4.57;2.20;;;13.30;60.90;;;;;;4952364;28;46475;-64
2022/09/09 03:49:51;;;;;;;9.57;2.27;;;13.30;60.90;;;;;;4955753;28;46551;-63
2022/09/09 03:52:19;;;;;;;11.27;2.60;;;13.20;60.80;;;;;;4955319;28;46327;-63
2022/09/09 03:54:47;;;;;;;5.07;1.90;;;13.20;60.00;;;;;;4957915;28;46118;-63
2022/09/09 03:57:16;;;;;;;3.67;1.90;;;13.20;61.00;;;;;;4951052;28;45913;-63
2022/09/09 03:59:44;;;;;;;7.00;2.37;;;13.20;61.00;;;;;;4954302;28;46420;-63
2022/09/09 04:02:11;;;;;;;8.23;2.40;;;13.20;61.20;;;;;;4953383;28;46344;-63
2022/09/09 04:04:39;;;;;;;11.23;2.00;;;13.20;60.20;;;;;;4951150;28;46465;-63
2022/09/09 04:07:06;;;;;;;7.80;2.30;;;13.20;61.00;;;;;;4956340;28;46739;-63
2022/09/09 04:09:34;;;;;;;4.73;1.80;;;13.30;60.70;;;;;;4963337;28;47499;-63
2022/09/09 04:12:02;;;;;;;6.13;2.77;;;13.40;60.50;;;;;;4965323;28;46401;-63
2022/09/09 04:14:29;;;;;;;4.70;1.90;;;13.60;59.10;;;;;;4961702;28;46811;-63
2022/09/09 04:16:59;;;;;;;6.20;2.40;;;13.70;59.80;;;;;;4958420;28;46422;-64
2022/09/09 04:19:26;;;;;;;5.47;2.67;;;13.80;59.50;;;;;;4970838;28;47855;-63
2022/09/09 04:21:53;;;;;;;6.40;2.10;;;13.90;59.30;;;;;;4958212;28;46419;-64
2022/09/09 04:24:21;;;;;;;3.63;2.20;;;14.00;57.90;;;;;;4959915;28;46424;-64
2022/09/09 04:26:48;;;;;;;4.30;1.90;;;14.00;58.80;;;;;;4958989;28;46389;-63
2022/09/09 04:29:15;;;;;;;3.20;1.80;;;14.10;58.80;;;;;;4954557;28;46356;-63
2022/09/09 04:31:42;;;;;;;4.70;2.10;;;14.10;58.80;;;;;;4956322;28;46402;-63
2022/09/09 04:34:10;;;;;;;6.67;1.77;;;14.00;58.10;;;;;;4969940;28;46345;-64
2022/09/09 04:36:39;;;;;;;16.20;2.17;;;14.10;59.20;;;;;;4955924;28;46592;-64
2022/09/09 04:39:07;;;;;;;3.43;1.60;;;14.20;59.00;;;;;;4974437;28;46739;-63
2022/09/09 04:41:35;;;;;;;6.50;2.40;;;14.30;58.80;;;;;;4974296;28;46435;-63
2022/09/09 04:44:03;;;;;;;14.33;2.30;;;14.40;57.60;;;;;;4958109;28;46893;-64
2022/09/09 04:46:30;;;;;;;3.00;1.83;;;14.40;58.50;;;;;;4967287;28;46646;-64
2022/09/09 04:48:57;;;;;;;6.87;2.23;;;14.50;58.40;;;;;;4960122;28;46580;-64
2022/09/09 04:51:24;;;;;;;5.17;2.03;;;14.60;58.30;;;;;;4959788;28;46490;-63
2022/09/09 04:53:53;;;;;;;5.70;2.10;;;14.70;57.10;;;;;;4974757;28;46533;-64
2022/09/09 04:56:21;;;;;;;5.23;2.30;;;14.70;58.00;;;;;;4956915;28;46471;-63
2022/09/09 04:58:48;;;;;;;5.87;2.03;;;14.80;58.00;;;;;;4973972;28;47532;-63
2022/09/09 05:01:21;;;;;;;6.10;1.90;;;14.90;57.70;;;;;;4957459;28;46384;-63
2022/09/09 05:03:49;;;;;;;4.33;2.00;;;14.90;56.80;;;;;;4973102;28;46466;-64
2022/09/09 05:06:19;;;;;;;2.70;1.80;;;14.90;57.80;;;;;;4975264;28;46396;-65
2022/09/09 05:08:46;;;;;;;4.47;1.70;;;14.90;57.90;;;;;;4958801;28;46663;-64
2022/09/09 05:11:19;;;;;;;6.03;2.03;;;15.00;58.00;;;;;;4977542;28;45778;-64
2022/09/09 05:13:47;;;;;;;4.53;1.90;;;15.00;57.20;;;;;;4978187;28;46298;-63
2022/09/09 05:16:15;;;;;;;4.67;2.50;;;15.00;58.30;;;;;;4960291;28;46823;-63
2022/09/09 05:18:43;;;;;;;8.00;2.30;;;15.10;58.30;;;;;;4957579;28;46433;-64
2022/09/09 05:21:12;;;;;;;7.83;1.90;;;15.10;58.00;;;;;;4957077;28;46435;-64
2022/09/09 05:23:39;;;;;;;5.00;1.90;;;15.20;57.10;;;;;;4972549;28;46802;-64
2022/09/09 05:26:09;;;;;;;4.60;1.97;;;15.20;58.20;;;;;;4969314;28;46357;-63
2022/09/09 05:28:35;;;;;;;4.53;2.00;;;15.30;58.10;;;;;;4954432;28;46386;-64
2022/09/09 05:31:08;;;;;;;5.80;2.10;;;15.30;57.90;;;;;;4953853;28;46798;-64
2022/09/09 05:33:36;;;;;;;3.70;2.57;;;15.30;57.10;;;;;;4954034;28;45788;-64
2022/09/09 05:36:10;;;;;;;6.83;2.47;;;15.30;58.20;;;;;;4961117;28;46440;-63
2022/09/09 05:38:38;;;;;;;8.97;2.40;;;15.30;58.20;;;;;;4970589;28;47329;-64
2022/09/09 05:41:07;;;;;;;6.43;2.20;;;15.30;58.40;;;;;;4957810;28;46456;-64
2022/09/09 05:43:35;;;;;;;6.00;2.40;;;15.30;57.60;;;;;;4956372;28;46567;-64
2022/09/09 05:46:07;;;;;;;5.40;2.30;;;15.30;58.60;;;;;;4958174;28;46498;-64
2022/09/09 05:48:37;;;;;;;7.43;2.50;;;15.30;58.30;;;;;;4953041;28;47474;-64
2022/09/09 05:51:08;;;;;;;5.23;2.13;;;15.40;58.30;;;;;;4940075;28;46635;-64
2022/09/09 05:53:36;;;;;;;5.80;2.30;;;15.50;57.00;;;;;;4963335;28;46545;-63
2022/09/09 05:56:10;;;;;;;4.10;2.40;;;15.50;58.00;;;;;;4972563;28;46408;-64
2022/09/09 05:58:38;;;;;;;7.63;2.23;;;15.60;58.10;;;;;;4953884;28;47366;-64
2022/09/09 06:01:22;;;;;;;6.00;2.30;;;15.60;57.90;;;;;;4953214;28;46411;-64
2022/09/09 06:03:50;;;;;;;5.53;2.77;;;15.60;57.30;;;;;;4957156;28;46415;-64
2022/09/09 06:06:20;;;;;;;4.20;1.93;;;15.60;58.50;;;;;;4953426;28;46142;-67
2022/09/09 06:08:47;;;;;;;8.70;2.33;;;15.60;58.60;;;;;;4957415;28;47886;-64
2022/09/09 06:11:22;;;;;;;4.80;2.20;;;15.60;58.80;;;;;;4959765;28;46550;-65
2022/09/09 06:13:53;;;;;;;7.80;3.20;;;15.70;57.90;;;;;;4961883;28;46624;-66
2022/09/09 06:16:23;;;;;;;5.37;2.40;;;15.70;59.00;;;;;;4959743;28;46506;-66
2022/09/09 06:18:50;;;;;;;8.60;2.20;;;15.80;58.70;;;;;;4958647;28;46480;-68
2022/09/09 06:21:19;;;;;;;9.10;2.40;;;15.90;58.50;;;;;;4958958;28;46364;-67
2022/09/09 06:23:47;;;;;;;6.47;2.63;;;16.00;57.80;;;;;;4975659;28;45894;-67
2022/09/09 06:26:19;;;;;;;8.27;2.47;;;16.00;58.80;;;;;;4960403;28;46205;-67
2022/09/09 06:28:47;;;;;;;6.87;2.67;;;16.10;58.70;;;;;;4965232;28;46661;-67
2022/09/09 06:31:23;;;;;;;7.37;2.73;;;16.10;58.60;;;;;;4964068;28;46773;-67
2022/09/09 06:33:53;;;;;;;4.00;2.23;;;16.30;57.50;;;;;;4964315;28;46648;-67
2022/09/09 06:36:23;;;;;;;4.07;2.33;;;16.30;57.20;;;;;;4960694;28;46386;-67
2022/09/09 06:38:51;;;;;;;6.20;2.27;;;16.30;58.30;;;;;;4962566;28;47261;-68
2022/09/09 06:41:21;;;;;;;7.00;2.20;;;16.40;58.00;;;;;;4959278;28;46502;-68
2022/09/09 06:43:49;;;;;;;6.17;2.03;;;16.70;56.70;;;;;;4959435;28;46272;-68
2022/09/09 06:46:22;;;;;;;3.30;2.10;;;16.70;57.80;;;;;;4960436;28;46004;-63
2022/09/09 06:48:50;;;;;;;5.33;2.60;;;16.80;57.90;;;;;;4956241;28;47176;-67
2022/09/09 06:51:24;;;;;;;4.23;2.10;;;16.90;58.00;;;;;;4960183;28;45889;-67
2022/09/09 06:53:54;;;;;;;5.80;2.63;;;17.10;56.40;;;;;;4961230;28;45847;-66
2022/09/09 06:56:27;;;;;;;7.07;2.13;;;17.10;57.30;;;;;;4973766;28;46537;-67
2022/09/09 06:58:58;;;;;;;9.37;2.03;;;17.10;57.00;;;;;;4958954;28;46566;-65
2022/09/09 07:01:28;;;;;;;3.10;2.00;;;17.20;56.90;;;;;;4956835;28;46475;-67
2022/09/09 07:03:58;;;;;;;6.20;2.33;;;17.10;56.00;;;;;;4975355;28;46650;-67
2022/09/09 07:06:35;;;;;;;5.67;2.60;;;17.10;57.10;;;;;;4959592;28;46703;-67
2022/09/09 07:09:08;;;;;;;4.97;2.57;;;17.10;57.20;;;;;;4975270;28;46731;-67
2022/09/09 07:11:41;;;;;;;4.07;2.27;;;17.10;57.20;;;;;;4959045;28;46524;-67
2022/09/09 07:14:13;;;;;;;5.50;1.90;;;17.10;56.10;;;;;;4972664;28;46612;-68
2022/09/09 07:16:41;;;;;;;7.63;2.30;;;17.10;57.00;;;;;;4952638;28;46395;-68
2022/09/09 07:19:09;;;;;;;6.03;2.57;;;17.20;56.80;;;;;;4953704;28;46065;-70
2022/09/09 07:21:37;;;;;;;5.37;2.27;;;17.30;56.90;;;;;;4953593;28;46495;-69
2022/09/09 07:24:07;;;;;;;5.50;2.27;;;17.30;55.60;;;;;;4969184;28;46334;-66
2022/09/09 07:26:35;;;;;;;7.37;1.90;;;17.30;56.60;;;;;;4958715;28;46408;-67
2022/09/09 07:29:04;;;;;;;10.20;2.53;;;17.30;56.70;;;;;;4953473;28;46663;-68
2022/09/09 07:31:36;;;;;;;4.60;1.83;;;17.30;56.60;;;;;;4955839;28;46419;-69
2022/09/09 07:34:05;;;;;;;5.07;2.47;;;17.30;55.70;;;;;;4970714;28;46513;-69
2022/09/09 07:36:39;;;;;;;7.27;2.13;;;17.30;56.90;;;;;;4955264;28;46116;-69
2022/09/09 07:39:09;;;;;;;8.73;2.10;;;17.30;56.80;;;;;;4956891;28;46383;-69
2022/09/09 07:41:42;;;;;;;3.30;2.00;;;17.30;56.80;;;;;;4973583;28;46804;-68
2022/09/09 07:44:32;;;;;;;5.73;2.00;;;17.40;55.60;;;;;;4956630;28;46645;-69
2022/09/09 07:47:00;;;;;;;3.83;1.93;;;17.40;56.40;;;;;;4958811;28;46481;-69
2022/09/09 07:49:27;;;;;;;5.60;2.00;;;17.50;56.10;;;;;;4954456;28;46416;-69
2022/09/09 07:51:55;;;;;;;5.43;1.70;;;17.60;55.90;;;;;;4945929;28;46525;-69
2022/09/09 07:54:23;;;;;;;4.60;2.43;;;17.70;54.40;;;;;;4955230;28;46461;-66
2022/09/09 07:56:52;;;;;;;6.60;2.30;;;17.80;55.40;;;;;;4955397;28;46831;-68
2022/09/09 07:59:21;;;;;;;5.23;2.07;;;17.90;55.10;;;;;;4957306;28;46479;-68
2022/09/09 08:01:54;;;;;;;5.00;1.93;;;18.00;55.00;;;;;;4957153;28;46484;-69
2022/09/09 08:04:24;;;;;;;7.30;2.87;;;18.10;53.70;;;;;;4958553;28;46910;-68
2022/09/09 08:06:58;;;;;;;6.47;2.40;;;18.20;54.80;;;;;;4959434;28;46577;-68
2022/09/09 08:09:32;;;;;;;5.90;1.97;;;18.20;54.70;;;;;;4957493;28;46492;-70
2022/09/09 08:12:00;;;;;;;6.20;2.17;;;18.30;54.40;;;;;;4973190;28;46578;-69
2022/09/09 08:14:29;;;;;;;6.17;2.77;;;18.50;52.80;;;;;;4957105;28;45920;-68
2022/09/09 08:16:58;;;;;;;3.90;1.77;;;18.50;53.80;;;;;;4973857;28;45875;-68
2022/09/09 08:19:29;;;;;;;6.23;2.10;;;18.60;52.40;;;;;;4954392;28;46878;-69
2022/09/09 08:21:56;;;;;;;3.43;2.13;;;18.70;53.30;;;;;;4955167;28;46164;-69
2022/09/09 08:24:24;;;;;;;4.80;1.70;;;18.90;52.90;;;;;;4958634;28;46441;-68
2022/09/09 08:26:53;;;;;;;7.57;2.00;;;19.00;52.70;;;;;;4957291;28;46344;-66
2022/09/09 08:29:20;;;;;;;6.43;2.20;;;19.20;52.30;;;;;;4957149;28;48564;-67
2022/09/09 08:31:54;;;;;;;4.70;1.90;;;19.20;52.10;;;;;;4973506;28;46547;-68
2022/09/09 08:34:23;;;;;;;5.73;1.93;;;19.30;50.70;;;;;;4972006;28;46412;-68
2022/09/09 08:36:51;;;;;;;8.23;2.00;;;19.30;52.00;;;;;;4973171;28;46365;-68
2022/09/09 08:39:21;;;;;;;5.97;2.27;;;19.20;52.00;;;;;;4959234;28;46578;-67
2022/09/09 08:42:02;;;;;;;3.23;1.80;;;19.20;52.00;;;;;;4973031;28;46479;-67
2022/09/09 08:44:38;;;;;;;7.50;2.17;;;19.20;51.10;;;;;;4958916;28;46605;-67
2022/09/09 08:47:28;;;;;;;4.10;1.80;;;19.20;52.30;;;;;;4959841;28;46103;-65
2022/09/09 08:50:11;;;;;;;2.70;1.30;;;19.10;52.40;;;;;;4959640;28;46452;-66
2022/09/09 08:52:39;;;;;;;7.90;1.40;;;19.00;52.50;;;;;;4976182;28;46127;-69
2022/09/09 08:55:13;;;;;;;3.17;1.90;;;19.00;51.40;;;;;;4961311;28;46485;-69
2022/09/09 08:57:42;;;;;;;5.47;1.77;;;19.00;52.50;;;;;;4962982;28;46466;-69
2022/09/09 09:00:12;;;;;;;9.10;1.67;;;19.10;52.40;;;;;;4962216;28;46516;-69
2022/09/09 09:03:00;;;;;;;7.07;1.83;;;19.20;52.10;;;;;;4962992;28;46495;-70
2022/09/09 09:05:32;;;;;;;6.53;1.37;;;19.20;50.40;;;;;;4962038;28;46610;-68
2022/09/09 09:08:22;;;;;;;4.30;1.40;;;19.30;51.30;;;;;;4960193;28;46016;-69
2022/09/09 09:10:54;;;;;;;4.93;1.50;;;19.30;51.10;;;;;;4961096;28;47008;-70
2022/09/09 09:13:44;;;;;;;3.60;1.37;;;19.50;49.90;;;;;;4961428;28;46075;-69
2022/09/09 09:16:36;;;;;;;3.17;1.40;;;19.50;50.80;;;;;;4962062;28;46379;-70
2022/09/09 09:19:05;;;;;;;3.13;1.27;;;19.50;50.40;;;;;;4956741;28;46480;-70
2022/09/09 09:21:45;;;;;;;6.17;1.60;;;19.70;50.20;;;;;;4966483;28;46480;-70
2022/09/09 09:24:47;;;;;;;3.77;1.17;;;19.80;48.70;;;;;;4961334;28;46758;-70
2022/09/09 09:27:22;;;;;;;9.20;1.50;;;19.80;49.50;;;;;;4963017;28;46872;-70
2022/09/09 09:29:52;;;;;;;4.03;1.50;;;19.80;49.70;;;;;;4978051;28;46655;-70
2022/09/09 09:32:23;;;;;;;3.27;1.00;;;19.80;49.40;;;;;;4976028;28;46531;-70
2022/09/09 09:35:00;;;;;;;8.10;1.40;;;19.90;48.00;;;;;;4961443;28;46373;-70
2022/09/09 09:37:39;;;;;;;3.10;1.47;;;19.90;48.80;;;;;;4960666;28;46834;-69
2022/09/09 09:40:17;;;;;;;4.33;1.53;;;19.90;48.70;;;;;;4976731;28;46341;-69
2022/09/09 09:43:08;;;;;;;4.37;1.50;;;19.90;48.50;;;;;;4977749;28;46683;-70
2022/09/09 09:45:48;;;;;;;4.07;1.20;;;19.90;47.10;;;;;;4961155;28;46523;-71
2022/09/09 09:48:16;;;;;;;2.33;1.10;;;19.90;48.50;;;;;;4976302;28;46433;-68
2022/09/09 09:50:58;;;;;;;3.20;1.20;;;19.80;48.40;;;;;;4969000;28;46602;-69
2022/09/09 09:53:30;;;;;;;10.93;1.63;;;19.80;46.80;;;;;;4960886;28;47482;-68
2022/09/09 09:56:06;;;;;;;7.10;1.20;;;19.80;47.80;;;;;;4963586;28;46462;-68
2022/09/09 09:58:47;;;;;;;4.33;1.50;;;19.70;47.60;;;;;;4963034;28;46409;-69
2022/09/09 10:01:31;;;;;;;5.57;1.33;;;19.70;47.50;;;;;;4964182;28;46634;-70
2022/09/09 10:04:18;;;;;;;9.60;2.13;;;19.70;46.30;;;;;;4964486;28;46225;-70
2022/09/09 10:06:47;;;;;;;7.00;1.77;;;19.80;47.50;;;;;;4963630;28;46495;-68
2022/09/09 10:09:32;;;;;;;5.30;1.40;;;19.80;47.40;;;;;;4964328;28;46613;-68
2022/09/09 10:12:09;;;;;;;6.30;1.20;;;19.90;47.20;;;;;;4962028;28;46346;-69
2022/09/09 10:15:13;;;;;;;3.70;1.37;;;20.10;45.30;;;;;;4961972;28;46596;-69
2022/09/09 10:18:22;;;;;;;7.20;1.70;;;20.10;46.10;;;;;;4961486;28;46358;-68
2022/09/09 10:21:13;;;;;;;6.23;1.60;;;20.10;44.80;;;;;;4960301;28;46632;-68
2022/09/09 10:23:47;;;;;;;36.43;9.70;;;20.30;44.20;;;;;;4956681;28;46606;-69
2022/09/09 10:26:28;;;;;;;11.03;2.50;;;20.40;45.30;;;;;;4957452;28;46570;-69
2022/09/09 10:29:16;;;;;;;10.40;1.70;;;20.50;45.10;;;;;;4961249;28;46431;-69
2022/09/09 10:32:21;;;;;;;11.33;2.43;;;20.50;44.90;;;;;;4962076;28;46424;-68
2022/09/09 10:34:58;;;;;;;5.47;1.93;;;20.40;44.70;;;;;;4957116;28;46789;-68
2022/09/09 10:37:48;;;;;;;10.20;2.17;;;20.50;44.90;;;;;;4975088;28;47592;-70
2022/09/09 10:40:33;;;;;;;5.93;1.43;;;20.70;44.40;;;;;;4977559;28;46866;-70
2022/09/09 10:43:22;;;;;;;4.77;1.77;;;20.80;43.70;;;;;;4959224;28;46491;-69
2022/09/09 10:46:05;;;;;;;5.13;1.17;;;21.00;43.30;;;;;;4958657;28;46745;-70
2022/09/09 10:48:45;;;;;;;3.30;1.30;;;21.10;42.70;;;;;;4960262;28;46538;-69
2022/09/09 10:51:51;;;;;;;4.07;1.33;;;21.10;42.60;;;;;;4958248;28;46400;-70
2022/09/09 10:54:43;;;;;;;5.67;1.90;;;21.10;41.60;;;;;;4959250;28;46741;-68
2022/09/09 10:57:28;;;;;;;9.40;1.73;;;21.00;42.60;;;;;;4966514;28;45976;-70
2022/09/09 11:00:15;;;;;;;8.27;2.70;;;20.80;42.70;;;;;;4960494;28;47042;-69
2022/09/09 11:02:43;;;;;;;6.27;1.90;;;20.80;42.80;;;;;;4959825;28;46416;-70
2022/09/09 11:05:29;;;;;;;7.93;1.50;;;20.80;41.50;;;;;;4957736;28;46499;-70
2022/09/09 11:08:19;;;;;;;7.13;1.90;;;20.70;42.60;;;;;;4959001;28;46501;-67
2022/09/09 11:10:56;;;;;;;4.03;1.30;;;20.60;42.90;;;;;;4960195;28;48455;-69
2022/09/09 11:14:00;;;;;;;5.87;1.90;;;20.30;41.90;;;;;;4964796;28;45912;-70
2022/09/09 11:17:00;;;;;;;7.13;1.50;;;20.30;42.90;;;;;;4960923;28;46466;-69
2022/09/09 11:19:44;;;;;;;5.03;1.10;;;20.20;42.90;;;;;;4974664;28;46522;-71
2022/09/09 11:22:34;;;;;;;7.50;1.50;;;20.10;43.40;;;;;;4960775;28;46697;-69
2022/09/09 11:25:34;;;;;;;6.43;1.30;;;20.20;42.20;;;;;;4957683;28;46721;-69
2022/09/09 11:28:22;;;;;;;4.13;2.10;;;20.30;43.00;;;;;;4959545;28;46501;-69
2022/09/09 11:31:14;;;;;;;4.93;1.60;;;20.30;42.40;;;;;;4959053;28;46734;-69
2022/09/09 11:33:57;;;;;;;4.20;1.47;;;20.30;41.40;;;;;;4953887;28;46981;-69
2022/09/09 11:36:43;;;;;;;6.83;1.60;;;20.40;42.50;;;;;;4956449;28;46664;-67
2022/09/09 11:39:29;;;;;;;6.73;1.87;;;20.40;42.20;;;;;;4955111;28;46770;-70
2022/09/09 11:42:22;;;;;;;7.20;1.60;;;20.50;42.20;;;;;;4954172;28;45877;-69
2022/09/09 11:44:50;;;;;;;6.53;1.50;;;20.60;40.70;;;;;;4953460;28;46507;-69
2022/09/09 11:47:38;;;;;;;6.60;1.80;;;20.70;41.60;;;;;;4953004;28;46575;-68
2022/09/09 11:50:30;;;;;;;4.80;1.77;;;20.90;41.30;;;;;;4953384;28;46540;-68
2022/09/09 11:53:24;;;;;;;7.83;1.70;;;21.10;39.30;;;;;;4968163;28;46473;-68
2022/09/09 11:56:14;;;;;;;9.13;1.60;;;21.10;40.50;;;;;;4952961;28;46591;-68
2022/09/09 11:59:05;;;;;;;6.20;1.87;;;21.20;40.30;;;;;;4947042;28;46442;-68
2022/09/09 12:01:43;;;;;;;7.90;1.73;;;21.40;40.00;;;;;;4958786;28;46468;-69
2022/09/09 12:04:48;;;;;;;3.70;1.27;;;21.90;38.40;;;;;;4954083;28;46462;-68
2022/09/09 12:07:58;;;;;;;4.73;1.70;;;22.00;39.00;;;;;;4955936;28;47536;-69
2022/09/09 12:11:01;;;;;;;8.50;1.70;;;22.20;38.50;;;;;;4958588;28;46381;-68
2022/09/09 12:13:57;;;;;;;3.70;1.57;;;22.20;36.60;;;;;;4949727;28;46452;-69
2022/09/09 12:16:45;;;;;;;4.63;1.27;;;22.20;37.70;;;;;;4955532;28;46482;-68
2022/09/09 12:19:36;;;;;;;4.60;1.53;;;22.20;37.50;;;;;;4968578;28;46544;-66
2022/09/09 12:22:46;;;;;;;7.00;1.40;;;22.00;37.60;;;;;;4952092;28;46662;-67
2022/09/09 12:25:53;;;;;;;3.80;1.27;;;22.20;36.20;;;;;;4950254;28;46385;-68
2022/09/09 12:28:50;;;;;;;8.93;1.70;;;22.10;37.30;;;;;;4955599;28;46508;-68
2022/09/09 12:32:09;;;;;;;5.27;1.60;;;22.20;37.30;;;;;;4959870;28;46622;-67
2022/09/09 12:34:59;;;;;;;5.37;1.70;;;22.30;35.70;;;;;;4958554;28;46357;-67
2022/09/09 12:37:52;;;;;;;6.43;1.70;;;22.30;36.60;;;;;;4955609;28;46440;-67
2022/09/09 12:40:38;;;;;;;6.73;1.53;;;22.50;36.30;;;;;;4956318;28;46612;-67
2022/09/09 12:43:31;;;;;;;5.77;1.80;;;22.40;35.20;;;;;;4973179;28;48635;-67
2022/09/09 12:46:40;;;;;;;2.83;1.30;;;22.40;36.30;;;;;;4956157;28;46460;-69
2022/09/09 12:49:45;;;;;;;3.20;1.40;;;22.20;36.10;;;;;;4952684;28;46292;-69
2022/09/09 12:52:43;;;;;;;12.70;1.73;;;22.00;35.90;;;;;;4958902;28;46256;-69
2022/09/09 12:55:42;;;;;;;3.70;1.30;;;21.80;35.10;;;;;;4955939;28;46298;-69
2022/09/09 12:58:38;;;;;;;6.47;1.47;;;21.70;36.90;;;;;;4958134;28;46348;-69
2022/09/09 13:01:41;;;;;;;10.60;1.80;;;21.80;36.70;;;;;;4959715;28;46699;-69
2022/09/09 13:04:46;;;;;;;5.70;1.40;;;22.20;35.00;;;;;;4954634;28;46471;-68
2022/09/09 13:07:55;;;;;;;6.07;1.60;;;22.30;36.20;;;;;;4954280;28;46415;-69
2022/09/09 13:10:55;;;;;;;6.87;1.60;;;22.70;36.00;;;;;;4970890;28;45968;-69
2022/09/09 13:13:55;;;;;;;6.73;1.60;;;22.80;34.10;;;;;;4959735;28;46283;-69
2022/09/09 13:16:55;;;;;;;5.13;1.63;;;22.80;34.80;;;;;;4956765;28;46499;-69
2022/09/09 13:19:53;;;;;;;4.33;1.30;;;22.80;34.80;;;;;;4960484;28;46366;-69
2022/09/09 13:22:56;;;;;;;7.80;2.27;;;23.00;34.10;;;;;;4955512;28;45933;-69
2022/09/09 13:25:34;;;;;;;8.97;1.40;;;23.10;31.70;;;;;;4955266;28;46492;-69
2022/09/09 13:28:34;;;;;;;6.90;1.20;;;23.10;32.80;;;;;;4952391;28;46610;-69
2022/09/09 13:31:44;;;;;;;7.53;1.40;;;23.20;32.80;;;;;;4953687;28;46357;-70
2022/09/09 13:34:40;;;;;;;8.90;1.73;;;23.20;29.90;;;;;;4955365;28;46940;-69
2022/09/09 13:37:47;;;;;;;6.73;1.80;;;23.10;30.80;;;;;;4955384;28;46496;-69
2022/09/09 13:40:32;;;;;;;12.33;1.70;;;23.20;29.70;;;;;;4954015;28;46952;-69
2022/09/09 13:43:23;;;;;;;5.50;1.47;;;23.10;30.80;;;;;;4959070;28;46709;-70